Current Weather

Diori Hamani

Diori Hamani, Niger (DRRN)

Report from: Wednesday, April 24, 2024 8:00 PM WAT
Current time: Wednesday, April 24, 2024 9:06 PM WAT

Nearby weather – Weather history – Daily summaries
Weather forecast

Temperature42.0°C (107.6°F)
Heat index38.9°C (102.1°F)
Dew point3.0°C (37.4°F)
Winds Calm
Visibility4.3 mi. (7 km)
Altimeter29.65 in.Hg (1004 mB)
Relative humidity9 %
Density altitude3,446 ft. (1,050 m)
Remarks No significant changes expected in the next two hours
Flight conditions Marginal Visual Meteorological Conditions
Raw dataDRRN 241900Z 00000KT 7000 NSC 42/03 Q1004 NOSIG
An error has occurred. This application may no longer respond until reloaded. Reload 🗙